createdAt,value
2022-11-07T07:13:47.804Z,11.35
2022-11-07T07:16:14.594Z,10.90
2022-11-07T07:18:41.395Z,9.13
2022-11-07T07:21:10.896Z,8.30
2022-11-07T07:23:41.277Z,12.27
2022-11-07T07:26:13.283Z,14.57
2022-11-07T07:28:40.430Z,7.55
2022-11-07T07:31:31.277Z,14.07
2022-11-07T07:33:58.350Z,13.07
2022-11-07T07:36:25.591Z,8.02
2022-11-07T07:38:52.464Z,10.98
2022-11-07T07:41:19.648Z,11.00
2022-11-07T07:43:46.961Z,10.10
2022-11-07T07:46:19.329Z,14.30
2022-11-07T07:48:46.069Z,14.30
2022-11-07T07:51:12.795Z,12.23
2022-11-07T07:53:39.628Z,14.55
2022-11-07T07:56:07.376Z,12.57
2022-11-07T07:58:34.394Z,12.90
2022-11-07T08:01:01.348Z,13.30
2022-11-07T08:03:32.155Z,9.18
2022-11-07T08:06:06.908Z,8.55
2022-11-07T08:08:38.189Z,11.20
2022-11-07T08:11:08.681Z,11.55
2022-11-07T08:13:36.116Z,9.90
2022-11-07T08:16:04.927Z,10.48
2022-11-07T08:18:31.936Z,9.88
2022-11-07T08:20:58.729Z,8.50
2022-11-07T08:23:25.577Z,10.75
2022-11-07T08:28:22.034Z,9.30
2022-11-07T08:30:55.621Z,8.65
2022-11-07T08:33:22.426Z,11.40
2022-11-07T08:35:49.220Z,9.02
2022-11-07T08:40:42.646Z,12.30
2022-11-07T08:45:36.068Z,8.48
2022-11-07T08:48:02.923Z,10.23
2022-11-07T08:50:29.764Z,9.75
2022-11-07T08:55:29.696Z,9.02
2022-11-07T09:00:28.581Z,9.40
2022-11-07T09:05:42.233Z,10.50
2022-11-07T09:10:35.949Z,9.68
2022-11-07T09:13:02.848Z,8.95
2022-11-07T09:15:29.650Z,8.68
2022-11-07T09:20:23.199Z,10.55
2022-11-07T09:25:16.727Z,10.05
2022-11-07T09:30:10.788Z,10.82
2022-11-07T09:32:45.780Z,10.05
2022-11-07T09:35:13.657Z,14.02
2022-11-07T09:37:41.782Z,15.73
2022-11-07T09:40:29.217Z,10.82
2022-11-07T09:42:58.813Z,16.08
2022-11-07T09:45:25.648Z,14.70
2022-11-07T09:50:42.291Z,14.32
2022-11-07T09:53:22.171Z,11.13
2022-11-07T09:55:53.421Z,14.02
2022-11-07T09:58:36.743Z,12.65
2022-11-07T10:01:11.631Z,11.82
2022-11-07T10:03:43.140Z,12.88
2022-11-07T10:06:45.191Z,13.57
2022-11-07T10:12:17.409Z,12.73
2022-11-07T10:15:03.429Z,14.65
2022-11-07T10:17:43.890Z,14.10
2022-11-07T10:20:24.447Z,13.00
2022-11-07T10:23:21.078Z,13.90
2022-11-07T10:25:53.202Z,14.50
2022-11-07T10:28:21.039Z,15.98
2022-11-07T10:30:51.237Z,14.80
2022-11-07T10:33:27.022Z,15.57
2022-11-07T10:35:59.054Z,14.98
2022-11-07T10:38:28.335Z,12.20
2022-11-07T10:40:58.233Z,15.75
2022-11-07T10:43:38.869Z,13.23
2022-11-07T10:46:27.177Z,13.57
2022-11-07T10:48:59.680Z,14.00
2022-11-07T10:51:40.694Z,13.73
2022-11-07T10:54:21.909Z,22.08
2022-11-07T10:57:03.012Z,11.35
2022-11-07T10:59:36.245Z,13.80
2022-11-07T11:02:25.043Z,14.52
2022-11-07T11:04:55.198Z,14.05
2022-11-07T11:07:28.577Z,14.00
2022-11-07T11:09:57.906Z,12.55
2022-11-07T11:12:33.334Z,13.23
2022-11-07T11:15:12.304Z,14.32
2022-11-07T11:17:39.431Z,13.57
2022-11-07T11:20:23.379Z,11.90
2022-11-07T11:22:50.152Z,13.70
2022-11-07T11:28:01.910Z,14.15
2022-11-07T11:30:30.813Z,15.73
2022-11-07T11:33:05.377Z,13.43
2022-11-07T11:35:47.907Z,13.25
2022-11-07T11:38:22.888Z,16.73
2022-11-07T11:41:03.272Z,15.68
2022-11-07T11:43:55.383Z,13.07
2022-11-07T11:46:26.298Z,15.13
2022-11-07T11:49:05.801Z,15.55
2022-11-07T11:51:44.733Z,14.90
2022-11-07T11:54:14.261Z,14.48
2022-11-07T11:56:59.000Z,20.85
2022-11-07T11:59:50.323Z,18.52
2022-11-07T12:02:53.222Z,14.82
2022-11-07T12:05:38.107Z,16.60
2022-11-07T12:08:42.675Z,15.27
2022-11-07T12:11:46.928Z,14.38
2022-11-07T12:14:13.604Z,17.25
2022-11-07T12:16:49.058Z,16.42
2022-11-07T12:19:26.850Z,18.70
2022-11-07T12:22:25.568Z,18.08
2022-11-07T12:24:55.430Z,16.73
2022-11-07T12:27:27.184Z,16.63
2022-11-07T12:30:15.911Z,14.23
2022-11-07T12:33:10.864Z,15.15
2022-11-07T12:35:48.757Z,18.70
2022-11-07T12:38:49.973Z,16.83
2022-11-07T12:41:24.041Z,16.83
2022-11-07T12:44:15.155Z,19.85
2022-11-07T12:46:55.094Z,17.63
2022-11-07T12:49:36.615Z,14.65
2022-11-07T12:52:15.691Z,16.67
2022-11-07T12:54:47.043Z,18.80
2022-11-07T12:57:34.493Z,17.15
2022-11-07T13:00:15.669Z,16.95
2022-11-07T13:03:19.775Z,18.73
2022-11-07T13:05:52.857Z,19.15
2022-11-07T13:11:23.067Z,19.02
2022-11-07T13:14:24.005Z,18.52
2022-11-07T13:17:10.979Z,17.85
2022-11-07T13:19:43.558Z,15.23
2022-11-07T13:22:16.142Z,18.45
2022-11-07T13:25:06.172Z,16.73
2022-11-07T13:27:36.878Z,17.83
2022-11-07T13:30:15.330Z,19.05
2022-11-07T13:32:47.460Z,17.83
2022-11-07T13:35:23.211Z,16.77
2022-11-07T13:38:20.186Z,17.63
2022-11-07T13:40:53.841Z,22.92
2022-11-07T13:43:46.020Z,19.40
2022-11-07T13:46:29.933Z,22.48
2022-11-07T13:49:16.715Z,21.02
2022-11-07T13:51:45.627Z,20.50
2022-11-07T13:54:33.962Z,18.45
2022-11-07T13:57:08.613Z,20.17
2022-11-07T13:59:56.813Z,23.38
2022-11-07T14:02:25.284Z,19.45
2022-11-07T14:05:15.240Z,19.92
2022-11-07T14:07:46.431Z,16.73
2022-11-07T14:10:24.521Z,16.63
2022-11-07T14:12:57.410Z,17.52
2022-11-07T14:15:24.509Z,16.77
2022-11-07T14:17:51.456Z,18.05
2022-11-07T14:20:19.844Z,18.30
2022-11-07T14:23:11.955Z,16.55
2022-11-07T14:25:38.742Z,17.80
2022-11-07T14:28:16.595Z,17.33
2022-11-07T14:30:43.595Z,15.57
2022-11-07T14:33:19.249Z,18.27
2022-11-07T14:35:48.433Z,16.98
2022-11-07T14:38:25.523Z,17.42
2022-11-07T14:40:58.853Z,21.90
2022-11-07T14:43:27.751Z,17.00
2022-11-07T14:46:18.164Z,20.17
2022-11-07T14:48:47.434Z,16.75
2022-11-07T14:51:18.046Z,19.45
2022-11-07T14:53:55.708Z,20.42
2022-11-07T14:56:28.060Z,26.45
2022-11-07T14:58:55.248Z,17.70
2022-11-07T15:01:29.914Z,24.02
2022-11-07T15:04:00.865Z,22.92
2022-11-07T15:06:40.917Z,21.10
2022-11-07T15:09:08.533Z,17.17
2022-11-07T15:11:39.210Z,17.90
2022-11-07T15:14:22.049Z,17.80
2022-11-07T15:16:50.638Z,17.15
2022-11-07T15:19:20.722Z,17.38
2022-11-07T15:22:03.168Z,18.02
2022-11-07T15:24:56.279Z,14.77
2022-11-07T15:27:33.521Z,18.13
2022-11-07T15:30:01.974Z,16.83
2022-11-07T15:32:37.598Z,19.17
2022-11-07T15:35:42.603Z,17.48
2022-11-07T15:38:02.300Z,19.83
2022-11-07T15:40:29.708Z,18.77
2022-11-07T15:42:56.562Z,17.45
2022-11-07T15:45:23.888Z,18.98
2022-11-07T15:47:51.632Z,16.83
2022-11-07T15:50:21.726Z,15.65
2022-11-07T15:52:49.126Z,18.90
2022-11-07T15:55:21.309Z,18.52
2022-11-07T15:57:51.539Z,16.67
2022-11-07T16:00:20.839Z,22.02
2022-11-07T16:02:47.982Z,20.70
2022-11-07T16:05:15.309Z,22.58
2022-11-07T16:07:44.079Z,21.42
2022-11-07T16:10:22.289Z,19.77
2022-11-07T16:12:50.145Z,22.70
2022-11-07T16:15:18.866Z,24.00
2022-11-07T16:17:46.331Z,23.08
2022-11-07T16:20:21.972Z,22.60
2022-11-07T16:22:50.004Z,21.92
2022-11-07T16:25:22.225Z,21.02
2022-11-07T16:27:52.021Z,20.83
2022-11-07T16:30:19.592Z,22.00
2022-11-07T16:32:46.791Z,20.10
2022-11-07T16:35:13.663Z,20.42
2022-11-07T16:37:40.486Z,24.85
2022-11-07T16:40:12.102Z,22.88
2022-11-07T16:42:39.032Z,21.13
2022-11-07T16:45:06.326Z,23.05
2022-11-07T16:47:37.278Z,22.50
2022-11-07T16:50:05.000Z,18.10
2022-11-07T16:52:31.732Z,23.23
2022-11-07T16:54:59.155Z,19.83
2022-11-07T16:57:26.248Z,23.27
2022-11-07T16:59:53.110Z,18.90
2022-11-07T17:04:50.394Z,19.10
2022-11-07T17:07:18.507Z,22.90
2022-11-07T17:09:45.311Z,23.38
2022-11-07T17:14:40.126Z,19.65
2022-11-07T17:17:07.347Z,22.13
2022-11-07T17:19:34.863Z,27.80
2022-11-07T17:22:03.179Z,20.35
2022-11-07T17:24:30.786Z,22.05
2022-11-07T17:27:00.494Z,22.52
2022-11-07T17:29:27.247Z,21.90
2022-11-07T17:31:54.317Z,23.65
2022-11-07T17:34:21.511Z,22.90
2022-11-07T17:36:50.693Z,18.85
2022-11-07T17:39:20.512Z,19.25
2022-11-07T17:41:49.376Z,21.42
2022-11-07T17:44:17.777Z,23.73
2022-11-07T17:46:49.479Z,20.70
2022-11-07T17:49:18.653Z,21.77
2022-11-07T17:51:45.684Z,25.30
2022-11-07T17:54:14.116Z,29.35
2022-11-07T17:56:41.549Z,28.38
2022-11-07T17:59:12.324Z,28.70
2022-11-07T18:01:40.452Z,28.52
2022-11-07T18:04:10.143Z,26.48
2022-11-07T18:06:39.327Z,25.00
2022-11-07T18:09:08.119Z,26.45
2022-11-07T18:11:35.500Z,27.67
2022-11-07T18:14:02.644Z,26.20
2022-11-07T18:16:34.513Z,24.92
2022-11-07T18:19:02.174Z,25.95
2022-11-07T18:21:29.692Z,24.88
2022-11-07T18:23:57.009Z,27.90
2022-11-07T18:26:30.541Z,29.75
2022-11-07T18:29:01.777Z,22.20
2022-11-07T18:31:28.563Z,30.15
2022-11-07T18:34:04.494Z,24.25
2022-11-07T18:36:38.107Z,24.05
2022-11-07T18:39:07.068Z,25.00
2022-11-07T18:41:34.081Z,21.90
2022-11-07T18:44:04.801Z,23.17
2022-11-07T18:46:32.468Z,24.40
2022-11-07T18:48:59.804Z,21.77
2022-11-07T18:51:26.722Z,21.30
2022-11-07T18:56:21.717Z,23.60
2022-11-07T18:58:48.487Z,20.67
2022-11-07T19:01:22.213Z,20.05
2022-11-07T19:03:49.193Z,20.52
2022-11-07T19:08:47.317Z,23.88
2022-11-07T19:11:16.280Z,23.00
2022-11-07T19:13:45.562Z,21.40
2022-11-07T19:16:15.593Z,22.23
2022-11-07T19:18:48.943Z,19.58
2022-11-07T19:21:19.764Z,19.55
2022-11-07T19:23:47.995Z,20.40
2022-11-07T19:26:14.784Z,22.48
2022-11-07T19:28:41.716Z,27.38
2022-11-07T19:33:36.974Z,27.70
2022-11-07T19:36:07.312Z,25.40
2022-11-07T19:38:34.533Z,25.77
2022-11-07T19:41:05.383Z,23.40
2022-11-07T19:43:32.522Z,26.30
2022-11-07T19:45:59.696Z,27.60
2022-11-07T19:48:26.514Z,31.35
2022-11-07T19:50:53.294Z,25.80
2022-11-07T19:53:21.551Z,27.77
2022-11-07T19:55:48.347Z,28.65
2022-11-07T19:58:15.990Z,27.15
2022-11-07T20:00:43.199Z,26.77
2022-11-07T20:03:10.265Z,26.40
2022-11-07T20:05:39.537Z,27.83
2022-11-07T20:08:06.618Z,29.50
2022-11-07T20:10:33.873Z,26.38
2022-11-07T20:13:00.734Z,26.30
2022-11-07T20:17:54.201Z,28.20
2022-11-07T20:20:20.956Z,27.65
2022-11-07T20:22:47.767Z,26.42
2022-11-07T20:25:14.927Z,25.40
2022-11-07T20:27:42.017Z,25.17
2022-11-07T20:30:09.668Z,25.35
2022-11-07T20:32:36.638Z,30.10
2022-11-07T20:37:30.414Z,26.70
2022-11-07T20:39:57.199Z,26.13
2022-11-07T20:42:23.979Z,31.55
2022-11-07T20:44:51.148Z,26.77
2022-11-07T20:47:18.188Z,29.98
2022-11-07T20:49:44.938Z,26.08
2022-11-07T20:52:11.773Z,24.27
2022-11-07T20:54:38.517Z,30.33
2022-11-07T20:57:05.310Z,27.23
2022-11-07T20:59:32.539Z,32.40
2022-11-07T21:02:03.406Z,29.13
2022-11-07T21:04:44.562Z,24.83
2022-11-07T21:07:19.648Z,29.98
2022-11-07T21:09:46.884Z,26.85
2022-11-07T21:12:13.788Z,29.33
2022-11-07T21:14:42.118Z,29.15
2022-11-07T21:17:09.613Z,29.35
2022-11-07T21:19:36.420Z,27.42
2022-11-07T21:22:04.083Z,27.10
2022-11-07T21:24:31.600Z,29.40
2022-11-07T21:26:58.625Z,25.05
2022-11-07T21:29:29.570Z,29.35
2022-11-07T21:31:57.277Z,28.73
2022-11-07T21:34:24.366Z,30.80
2022-11-07T21:36:51.137Z,28.25
2022-11-07T21:39:18.003Z,29.13
2022-11-07T21:44:14.215Z,27.85
2022-11-07T21:46:40.991Z,28.98
2022-11-07T21:49:08.507Z,24.88
2022-11-07T21:51:35.633Z,28.20
2022-11-07T21:54:04.651Z,25.23
2022-11-07T21:56:37.509Z,26.23
2022-11-07T21:59:09.943Z,23.20
2022-11-07T22:01:38.444Z,22.80
2022-11-07T22:04:09.374Z,24.20
2022-11-07T22:06:39.399Z,23.95
2022-11-07T22:09:07.515Z,24.70
2022-11-07T22:11:34.460Z,28.40
2022-11-07T22:14:01.278Z,24.52
2022-11-07T22:16:28.130Z,23.98
2022-11-07T22:18:54.973Z,23.77
2022-11-07T22:21:23.002Z,24.15
2022-11-07T22:23:50.453Z,24.40
2022-11-07T22:26:22.212Z,21.20
2022-11-07T22:28:49.851Z,23.30
2022-11-07T22:31:28.483Z,23.33
2022-11-07T22:33:56.239Z,22.45
2022-11-07T22:36:23.900Z,21.30
2022-11-07T22:38:51.298Z,23.20
2022-11-07T22:41:23.005Z,24.52
2022-11-07T22:43:50.763Z,23.02
2022-11-07T22:46:23.909Z,22.55
2022-11-07T22:48:51.278Z,23.67
2022-11-07T22:51:28.331Z,23.05
2022-11-07T22:53:57.044Z,19.35
2022-11-07T22:56:24.349Z,20.33
2022-11-07T22:58:51.055Z,21.85
2022-11-07T23:01:29.864Z,21.40
2022-11-07T23:03:57.664Z,23.63
2022-11-07T23:06:25.765Z,24.80
2022-11-07T23:08:53.446Z,20.30
2022-11-07T23:11:45.250Z,19.02
2022-11-07T23:14:12.870Z,21.95
2022-11-07T23:16:43.896Z,20.98
2022-11-07T23:19:13.642Z,21.73
2022-11-07T23:21:41.006Z,20.25
2022-11-07T23:24:08.328Z,21.67
2022-11-07T23:26:35.824Z,20.83
2022-11-07T23:29:09.269Z,21.10
2022-11-07T23:31:39.129Z,23.08
2022-11-07T23:34:05.923Z,21.75
2022-11-07T23:36:32.855Z,21.00
2022-11-07T23:41:31.586Z,18.98
2022-11-07T23:46:44.163Z,20.30
2022-11-07T23:49:29.546Z,19.35
2022-11-07T23:51:56.298Z,18.85
2022-11-07T23:54:41.388Z,21.45
2022-11-07T23:57:08.198Z,17.23
2022-11-07T23:59:53.931Z,18.70
